• Join FlightAware (Why Join?)
  • Login
  • US Flag 
12:01PM EDT


 

Airport Tracker/Info


-or-


 

Live Flight TrackerFlight Track Log ✈ SWA471 ✈ 19-Apr-2013 ✈ KMCI - KDAL

Flight Track Log - Related Links

Times and Time Zones

All times are in EDT time to prevent confusion due to time zone crossing. See the SWA471 flight status page for this flight to view local times or setup timezone preferences in your user account.

Time Position Orientation Groundspeed Altitude Reporting Facility
EDT Latitude Longitude Course Direction KTS MPH feet Rate Location/Type
09:54PM 39.3333 -94.7167 352° North 155 178 2,200  Level Kansas City TRACON
09:56PM 39.3761 -94.7247 352° North 190 219 5,100 3,480 Climbing Kansas City Center
09:57PM 39.3872 -94.8003 281° West 236 272 9,700 3,600 Climbing Kansas City Center
09:58PM 39.3156 -94.8297 198° South 290 334 12,600 2,340 Climbing Kansas City Center
09:59PM 39.2181 -94.8503 189° South 362 417 14,600 2,460 Climbing Kansas City Center
10:00PM 39.0936 -94.8867 193° South 411 473 17,700 2,940 Climbing Kansas City Center
10:01PM 38.9781 -94.9144 191° South 433 498 20,600 2,520 Climbing Kansas City Center
10:02PM 38.8639 -94.9467 192° South 436 502 22,900 2,280 Climbing Kansas City Center
10:03PM 38.7225 -94.9828 191° South 459 528 25,300 2,280 Climbing Kansas City Center
10:04PM 38.5986 -95.0164 192° South 467 537 27,500 2,400 Climbing Kansas City Center
10:05PM 38.4800 -95.0475 192° South 459 528 30,300 2,580 Climbing Kansas City Center
10:06PM 38.3450 -95.0817 191° South 442 509 32,800 1,800 Climbing Kansas City Center
10:07PM 38.2244 -95.0894 183° South 448 516 34,000 660 Climbing Kansas City Center
10:08PM 38.0769 -95.0911 181° South 467 537 34,200 960 Climbing Kansas City Center
10:09PM 37.9569 -95.0986 183° South 452 520 36,000 840 Climbing Kansas City Center
10:10PM 37.8244 -95.1047 182° South 442 509 36,000  Level Kansas City Center
10:11PM 37.6997 -95.1106 182° South 446 513 36,000  Level Kansas City Center
10:12PM 37.5750 -95.1153 182° South 446 513 36,000  Level Kansas City Center
10:13PM 37.4500 -95.1228 183° South 446 513 36,000  Level Kansas City Center
10:14PM 37.3258 -95.1261 181° South 446 513 36,000  Level Kansas City Center
10:15PM 37.2025 -95.1339 183° South 443 510 36,000  Level Kansas City Center
10:16PM 37.0789 -95.1381 182° South 443 510 36,000  Level Kansas City Center
10:17PM 36.9561 -95.1436 182° South 441 507 36,000  Level Kansas City Center
10:18PM 36.8342 -95.1481 182° South 437 503 36,000  Level Kansas City Center
10:19PM 36.7114 -95.1539 182° South 438 504 36,000  Level Kansas City Center
10:20PM 36.5722 -95.1592 182° South 433 498 36,000  Level Kansas City Center
10:21PM 36.4525 -95.1636 182° South 431 496 36,000  Level Kansas City Center
10:22PM 36.3328 -95.1700 182° South 430 495 36,000  Level Kansas City Center
10:23PM 36.2128 -95.1747 182° South 430 495 36,000  Level Kansas City Center
10:24PM 36.0942 -95.1800 182° South 428 493 36,000  Level Kansas City Center
10:25PM 35.9847 -95.1853 182° South 428 493 36,000  Level Kansas City Center
10:26PM 35.8411 -95.1906 182° South 428 493 36,000 -120 Level Kansas City Center
10:27PM 35.7233 -95.1975 183° South 425 489 35,800 -660 Descending Kansas City Center
10:28PM 35.6158 -95.2422 199° South 408 470 34,700 -960 Descending Kansas City Center
10:29PM 35.5692 -95.2625 199° South 412 474 34,400 -840 Descending Fort Worth Center
10:30PM 35.4594 -95.3111 200° South 407 468 33,500 -900 Descending Fort Worth Center
10:31PM 35.3478 -95.3572 199° South 423 487 32,600 -900 Descending Fort Worth Center
10:32PM 35.2317 -95.4108 201° Southwest 430 495 31,700 -960 Descending Fort Worth Center
10:33PM 35.1222 -95.4642 202° Southwest 435 501 30,700 -1,020 Descending Fort Worth Center
10:34PM 35.0061 -95.5225 202° Southwest 435 501 29,700 -1,020 Descending Fort Worth Center
10:35PM 34.8778 -95.5811 201° Southwest 447 514 28,700 -960 Descending Fort Worth Center
10:36PM 34.7617 -95.6367 201° Southwest 452 520 27,800 -960 Descending Fort Worth Center
10:37PM 34.6456 -95.6922 201° Southwest 452 520 26,800 -1,020 Descending Fort Worth Center
10:38PM 34.5317 -95.7447 201° Southwest 452 520 25,800 -1,020 Descending Fort Worth Center
10:39PM 34.4133 -95.8000 201° Southwest 452 520 24,800 -960 Descending Fort Worth Center
10:40PM 34.2972 -95.8550 201° Southwest 452 520 23,900 -960 Descending Fort Worth Center
10:41PM 34.1831 -95.9097 202° Southwest 452 520 22,900 -1,020 Descending Fort Worth Center
10:42PM 34.0836 -95.9539 200° South 441 507 21,900 -1,020 Descending Fort Worth Center
10:43PM 33.9756 -96.0058 202° Southwest 422 486 20,900 -1,440 Descending Fort Worth Center
10:44PM 33.8697 -96.0578 202° Southwest 422 486 19,100 -2,460 Descending Fort Worth Center
10:45PM 33.7681 -96.1042 201° Southwest 400 460 16,000 -3,300 Descending Fort Worth Center
10:46PM 33.6600 -96.1533 201° Southwest 389 448 12,500 -3,000 Descending Fort Worth Center
10:47PM 33.5728 -96.1919 200° South 381 438 10,000 -1,260 Descending Fort Worth Center
10:48PM 33.4731 -96.2381 201° Southwest 366 421 10,000 -60 Level Fort Worth Center
10:49PM 33.3897 -96.2789 202° Southwest 366 421 9,900 -540 Descending Fort Worth Center
10:50PM 33.3025 -96.3175 200° South 326 375 9,000 -480 Descending Fort Worth Center
10:51PM 33.2425 -96.3678 215° Southwest 303 349 9,000 -720 Level Fort Worth Center
10:52PM 33.1739 -96.4331 219° Southwest 293 337 7,600 -1,500 Descending Fort Worth Center
10:53PM 33.1053 -96.4661 202° Southwest 287 330 6,000 -1,620 Descending Fort Worth Center
10:54PM 33.0264 -96.5017 201° Southwest 292 336 4,400 -1,020 Descending Fort Worth Center
10:55PM 32.9556 -96.5344 201° Southwest 287 330 4,000 -240 Descending Fort Worth Center
10:56PM 32.8911 -96.5772 209° Southwest 275 316 4,000 -540 Level Fort Worth Center
10:57PM 32.8497 -96.6419 233° Southwest 259 298 3,000 -780 Descending Fort Worth Center
10:58PM 32.8167 -96.7000 236° Southwest 227 261 2,500 -480 Descending Dallas / Fort Worth TRACON
10:59PM 32.7833 -96.7500 232° Southwest 196 226 2,100 -480 Descending Dallas / Fort Worth TRACON
11:00PM 32.8000 -96.8000 292° West 131 151 1,600 -660 Descending Dallas / Fort Worth TRACON
11:01PM 32.8333 -96.8333 320° Northwest 135 155 800 -600 Descending Dallas / Fort Worth TRACON
11:02PM 32.8667 -96.8500 337° Northwest 145 167 500 -360 Descending Dallas / Fort Worth TRACON
11:04PM 32.8471 -96.8518 265° West  Level Estimated
11:11PM 32.8471 -96.8518 265° West  Level Estimated
11:12PM 32.8471 -96.8518 265° West  Level Estimated
11:13PM 32.8471 -96.8518 265° West  Level Estimated
11:14PM 32.8471 -96.8518 265° West  Level Estimated